sensor_id;sensor_type;location;lat;lon;timestamp;P1;durP1;ratioP1;P2;durP2;ratioP2
14078;SDS011;7115;50.150;8.568;2022-12-18T00:01:47;30.30;;;12.95;;
14078;SDS011;7115;50.150;8.568;2022-12-18T00:04:15;34.08;;;14.73;;
14078;SDS011;7115;50.150;8.568;2022-12-18T00:06:48;31.00;;;14.02;;
14078;SDS011;7115;50.150;8.568;2022-12-18T00:09:15;31.50;;;13.43;;
14078;SDS011;7115;50.150;8.568;2022-12-18T00:11:42;31.40;;;13.10;;
14078;SDS011;7115;50.150;8.568;2022-12-18T00:14:09;30.27;;;13.73;;
14078;SDS011;7115;50.150;8.568;2022-12-18T00:16:38;34.22;;;14.40;;
14078;SDS011;7115;50.150;8.568;2022-12-18T00:19:08;28.00;;;12.52;;
14078;SDS011;7115;50.150;8.568;2022-12-18T00:21:35;26.83;;;11.80;;
14078;SDS011;7115;50.150;8.568;2022-12-18T00:24:09;26.20;;;12.15;;
14078;SDS011;7115;50.150;8.568;2022-12-18T00:26:37;28.50;;;13.00;;
14078;SDS011;7115;50.150;8.568;2022-12-18T00:29:05;26.27;;;12.15;;
14078;SDS011;7115;50.150;8.568;2022-12-18T00:31:37;28.45;;;13.07;;
14078;SDS011;7115;50.150;8.568;2022-12-18T00:34:04;35.53;;;13.77;;
14078;SDS011;7115;50.150;8.568;2022-12-18T00:36:34;29.27;;;12.55;;
14078;SDS011;7115;50.150;8.568;2022-12-18T00:39:03;29.98;;;13.07;;
14078;SDS011;7115;50.150;8.568;2022-12-18T00:41:31;32.85;;;13.13;;
14078;SDS011;7115;50.150;8.568;2022-12-18T00:44:17;27.27;;;11.82;;
14078;SDS011;7115;50.150;8.568;2022-12-18T00:46:45;31.05;;;12.00;;
14078;SDS011;7115;50.150;8.568;2022-12-18T00:49:13;26.92;;;12.07;;
14078;SDS011;7115;50.150;8.568;2022-12-18T00:51:42;24.88;;;13.07;;
14078;SDS011;7115;50.150;8.568;2022-12-18T00:54:10;25.35;;;11.32;;
14078;SDS011;7115;50.150;8.568;2022-12-18T00:56:37;26.25;;;12.23;;
14078;SDS011;7115;50.150;8.568;2022-12-18T00:59:14;22.98;;;10.60;;
14078;SDS011;7115;50.150;8.568;2022-12-18T01:01:41;22.17;;;11.02;;
14078;SDS011;7115;50.150;8.568;2022-12-18T01:04:08;26.67;;;12.13;;
14078;SDS011;7115;50.150;8.568;2022-12-18T01:06:35;26.08;;;11.35;;
14078;SDS011;7115;50.150;8.568;2022-12-18T01:09:04;22.17;;;10.02;;
14078;SDS011;7115;50.150;8.568;2022-12-18T01:11:30;16.80;;;9.60;;
14078;SDS011;7115;50.150;8.568;2022-12-18T01:14:00;20.92;;;9.95;;
14078;SDS011;7115;50.150;8.568;2022-12-18T01:16:27;19.90;;;9.85;;
14078;SDS011;7115;50.150;8.568;2022-12-18T01:18:54;20.23;;;10.18;;
14078;SDS011;7115;50.150;8.568;2022-12-18T01:21:22;20.00;;;10.25;;
14078;SDS011;7115;50.150;8.568;2022-12-18T01:23:53;21.00;;;10.05;;
14078;SDS011;7115;50.150;8.568;2022-12-18T01:26:22;18.35;;;9.45;;
14078;SDS011;7115;50.150;8.568;2022-12-18T01:28:51;26.27;;;10.75;;
14078;SDS011;7115;50.150;8.568;2022-12-18T01:31:21;17.15;;;9.32;;
14078;SDS011;7115;50.150;8.568;2022-12-18T01:33:51;20.15;;;8.45;;
14078;SDS011;7115;50.150;8.568;2022-12-18T01:36:19;19.63;;;9.82;;
14078;SDS011;7115;50.150;8.568;2022-12-18T01:38:48;17.17;;;9.27;;
14078;SDS011;7115;50.150;8.568;2022-12-18T01:41:17;22.33;;;10.18;;
14078;SDS011;7115;50.150;8.568;2022-12-18T01:43:48;17.05;;;8.70;;
14078;SDS011;7115;50.150;8.568;2022-12-18T01:46:18;20.77;;;9.35;;
14078;SDS011;7115;50.150;8.568;2022-12-18T01:48:46;18.13;;;9.20;;
14078;SDS011;7115;50.150;8.568;2022-12-18T01:51:15;18.02;;;8.85;;
14078;SDS011;7115;50.150;8.568;2022-12-18T01:53:43;17.70;;;9.10;;
14078;SDS011;7115;50.150;8.568;2022-12-18T01:56:12;20.88;;;8.77;;
14078;SDS011;7115;50.150;8.568;2022-12-18T01:58:43;20.80;;;8.60;;
14078;SDS011;7115;50.150;8.568;2022-12-18T02:01:17;16.40;;;9.02;;
14078;SDS011;7115;50.150;8.568;2022-12-18T02:03:46;18.85;;;9.10;;
14078;SDS011;7115;50.150;8.568;2022-12-18T02:06:13;18.45;;;8.57;;
14078;SDS011;7115;50.150;8.568;2022-12-18T02:11:31;20.25;;;9.60;;
14078;SDS011;7115;50.150;8.568;2022-12-18T02:14:11;17.20;;;9.45;;
14078;SDS011;7115;50.150;8.568;2022-12-18T02:16:46;20.13;;;10.45;;
14078;SDS011;7115;50.150;8.568;2022-12-18T02:19:22;18.77;;;8.80;;
14078;SDS011;7115;50.150;8.568;2022-12-18T02:22:09;17.67;;;8.40;;
14078;SDS011;7115;50.150;8.568;2022-12-18T02:24:44;18.98;;;8.70;;
14078;SDS011;7115;50.150;8.568;2022-12-18T02:27:21;16.80;;;7.63;;
14078;SDS011;7115;50.150;8.568;2022-12-18T02:29:50;13.88;;;7.70;;
14078;SDS011;7115;50.150;8.568;2022-12-18T02:32:25;16.58;;;8.18;;
14078;SDS011;7115;50.150;8.568;2022-12-18T02:34:56;16.52;;;7.95;;
14078;SDS011;7115;50.150;8.568;2022-12-18T02:37:25;19.83;;;8.77;;
14078;SDS011;7115;50.150;8.568;2022-12-18T02:39:56;14.25;;;7.68;;
14078;SDS011;7115;50.150;8.568;2022-12-18T02:42:25;17.52;;;8.32;;
14078;SDS011;7115;50.150;8.568;2022-12-18T02:44:53;19.48;;;8.98;;
14078;SDS011;7115;50.150;8.568;2022-12-18T02:47:21;19.15;;;7.78;;
14078;SDS011;7115;50.150;8.568;2022-12-18T02:49:53;17.92;;;8.88;;
14078;SDS011;7115;50.150;8.568;2022-12-18T02:52:29;15.93;;;8.13;;
14078;SDS011;7115;50.150;8.568;2022-12-18T02:55:08;18.30;;;8.23;;
14078;SDS011;7115;50.150;8.568;2022-12-18T02:57:45;15.52;;;8.30;;
14078;SDS011;7115;50.150;8.568;2022-12-18T03:00:17;13.82;;;8.00;;
14078;SDS011;7115;50.150;8.568;2022-12-18T03:02:47;19.38;;;8.77;;
14078;SDS011;7115;50.150;8.568;2022-12-18T03:05:18;15.98;;;7.63;;
14078;SDS011;7115;50.150;8.568;2022-12-18T03:07:49;19.77;;;8.07;;
14078;SDS011;7115;50.150;8.568;2022-12-18T03:10:21;18.08;;;8.57;;
14078;SDS011;7115;50.150;8.568;2022-12-18T03:12:54;21.13;;;8.68;;
14078;SDS011;7115;50.150;8.568;2022-12-18T03:15:27;17.45;;;7.88;;
14078;SDS011;7115;50.150;8.568;2022-12-18T03:17:59;17.83;;;8.70;;
14078;SDS011;7115;50.150;8.568;2022-12-18T03:20:31;17.40;;;8.18;;
14078;SDS011;7115;50.150;8.568;2022-12-18T03:23:02;17.17;;;8.52;;
14078;SDS011;7115;50.150;8.568;2022-12-18T03:25:34;14.63;;;8.13;;
14078;SDS011;7115;50.150;8.568;2022-12-18T03:28:07;18.48;;;8.60;;
14078;SDS011;7115;50.150;8.568;2022-12-18T03:30:38;15.85;;;8.25;;
14078;SDS011;7115;50.150;8.568;2022-12-18T03:33:08;18.48;;;9.55;;
14078;SDS011;7115;50.150;8.568;2022-12-18T03:35:38;15.90;;;8.43;;
14078;SDS011;7115;50.150;8.568;2022-12-18T03:38:08;15.82;;;8.13;;
14078;SDS011;7115;50.150;8.568;2022-12-18T03:40:39;18.45;;;8.32;;
14078;SDS011;7115;50.150;8.568;2022-12-18T03:43:15;15.50;;;8.23;;
14078;SDS011;7115;50.150;8.568;2022-12-18T03:45:48;18.48;;;8.93;;
14078;SDS011;7115;50.150;8.568;2022-12-18T03:48:20;17.23;;;8.50;;
14078;SDS011;7115;50.150;8.568;2022-12-18T03:50:56;14.27;;;8.32;;
14078;SDS011;7115;50.150;8.568;2022-12-18T03:53:28;18.98;;;9.18;;
14078;SDS011;7115;50.150;8.568;2022-12-18T03:56:03;18.80;;;8.75;;
14078;SDS011;7115;50.150;8.568;2022-12-18T03:58:33;15.73;;;8.10;;
14078;SDS011;7115;50.150;8.568;2022-12-18T04:01:04;18.02;;;8.55;;
14078;SDS011;7115;50.150;8.568;2022-12-18T04:03:35;19.35;;;9.23;;
14078;SDS011;7115;50.150;8.568;2022-12-18T04:06:04;18.25;;;8.90;;
14078;SDS011;7115;50.150;8.568;2022-12-18T04:08:32;15.73;;;7.85;;
14078;SDS011;7115;50.150;8.568;2022-12-18T04:11:01;19.58;;;8.98;;
14078;SDS011;7115;50.150;8.568;2022-12-18T04:13:33;18.92;;;9.18;;
14078;SDS011;7115;50.150;8.568;2022-12-18T04:16:03;19.55;;;9.40;;
14078;SDS011;7115;50.150;8.568;2022-12-18T04:18:31;19.70;;;9.07;;
14078;SDS011;7115;50.150;8.568;2022-12-18T04:20:57;16.85;;;8.50;;
14078;SDS011;7115;50.150;8.568;2022-12-18T04:23:24;20.83;;;9.82;;
14078;SDS011;7115;50.150;8.568;2022-12-18T04:25:51;21.75;;;9.27;;
14078;SDS011;7115;50.150;8.568;2022-12-18T04:28:19;20.92;;;9.35;;
14078;SDS011;7115;50.150;8.568;2022-12-18T04:30:48;21.27;;;9.75;;
14078;SDS011;7115;50.150;8.568;2022-12-18T04:33:15;23.30;;;9.95;;
14078;SDS011;7115;50.150;8.568;2022-12-18T04:35:42;20.83;;;10.52;;
14078;SDS011;7115;50.150;8.568;2022-12-18T04:38:09;17.95;;;9.95;;
14078;SDS011;7115;50.150;8.568;2022-12-18T04:40:36;19.92;;;9.23;;
14078;SDS011;7115;50.150;8.568;2022-12-18T04:43:04;18.95;;;8.88;;
14078;SDS011;7115;50.150;8.568;2022-12-18T04:45:31;19.25;;;9.05;;
14078;SDS011;7115;50.150;8.568;2022-12-18T04:48:01;21.80;;;10.23;;
14078;SDS011;7115;50.150;8.568;2022-12-18T04:50:28;21.75;;;9.80;;
14078;SDS011;7115;50.150;8.568;2022-12-18T04:52:56;18.45;;;9.43;;
14078;SDS011;7115;50.150;8.568;2022-12-18T04:55:23;18.73;;;9.63;;
14078;SDS011;7115;50.150;8.568;2022-12-18T04:57:50;20.55;;;9.25;;
14078;SDS011;7115;50.150;8.568;2022-12-18T05:00:17;19.42;;;9.73;;
14078;SDS011;7115;50.150;8.568;2022-12-18T05:02:44;22.90;;;9.82;;
14078;SDS011;7115;50.150;8.568;2022-12-18T05:05:13;19.25;;;9.63;;
14078;SDS011;7115;50.150;8.568;2022-12-18T05:07:39;18.83;;;9.38;;
14078;SDS011;7115;50.150;8.568;2022-12-18T05:10:07;16.15;;;9.27;;
14078;SDS011;7115;50.150;8.568;2022-12-18T05:12:35;19.58;;;10.40;;
14078;SDS011;7115;50.150;8.568;2022-12-18T05:15:22;20.25;;;9.20;;
14078;SDS011;7115;50.150;8.568;2022-12-18T05:17:49;19.67;;;9.00;;
14078;SDS011;7115;50.150;8.568;2022-12-18T05:20:17;16.85;;;8.88;;
14078;SDS011;7115;50.150;8.568;2022-12-18T05:22:44;18.42;;;9.27;;
14078;SDS011;7115;50.150;8.568;2022-12-18T05:25:11;19.05;;;9.80;;
14078;SDS011;7115;50.150;8.568;2022-12-18T05:27:38;20.17;;;9.23;;
14078;SDS011;7115;50.150;8.568;2022-12-18T05:30:05;25.52;;;9.45;;
14078;SDS011;7115;50.150;8.568;2022-12-18T05:32:33;17.13;;;9.20;;
14078;SDS011;7115;50.150;8.568;2022-12-18T05:35:00;19.60;;;9.43;;
14078;SDS011;7115;50.150;8.568;2022-12-18T05:37:28;19.40;;;10.00;;
14078;SDS011;7115;50.150;8.568;2022-12-18T05:39:55;20.08;;;9.68;;
14078;SDS011;7115;50.150;8.568;2022-12-18T05:42:22;21.38;;;8.70;;
14078;SDS011;7115;50.150;8.568;2022-12-18T05:44:49;21.80;;;9.77;;
14078;SDS011;7115;50.150;8.568;2022-12-18T05:47:16;19.60;;;8.98;;
14078;SDS011;7115;50.150;8.568;2022-12-18T05:49:43;17.90;;;8.55;;
14078;SDS011;7115;50.150;8.568;2022-12-18T05:52:10;17.77;;;9.00;;
14078;SDS011;7115;50.150;8.568;2022-12-18T05:54:38;27.10;;;10.10;;
14078;SDS011;7115;50.150;8.568;2022-12-18T05:57:05;18.02;;;8.40;;
14078;SDS011;7115;50.150;8.568;2022-12-18T05:59:32;18.17;;;8.93;;
14078;SDS011;7115;50.150;8.568;2022-12-18T06:01:59;18.08;;;8.90;;
14078;SDS011;7115;50.150;8.568;2022-12-18T06:04:26;23.95;;;10.20;;
14078;SDS011;7115;50.150;8.568;2022-12-18T06:06:54;20.40;;;9.45;;
14078;SDS011;7115;50.150;8.568;2022-12-18T06:09:21;16.98;;;8.77;;
14078;SDS011;7115;50.150;8.568;2022-12-18T06:11:50;21.65;;;9.70;;
14078;SDS011;7115;50.150;8.568;2022-12-18T06:14:17;19.70;;;9.52;;
14078;SDS011;7115;50.150;8.568;2022-12-18T06:16:44;22.38;;;9.68;;
14078;SDS011;7115;50.150;8.568;2022-12-18T06:19:13;19.25;;;9.93;;
14078;SDS011;7115;50.150;8.568;2022-12-18T06:21:41;21.70;;;10.20;;
14078;SDS011;7115;50.150;8.568;2022-12-18T06:24:08;19.73;;;9.52;;
14078;SDS011;7115;50.150;8.568;2022-12-18T06:26:36;21.08;;;8.45;;
14078;SDS011;7115;50.150;8.568;2022-12-18T06:29:05;23.05;;;9.27;;
14078;SDS011;7115;50.150;8.568;2022-12-18T06:31:32;19.20;;;9.85;;
14078;SDS011;7115;50.150;8.568;2022-12-18T06:33:59;19.35;;;9.18;;
14078;SDS011;7115;50.150;8.568;2022-12-18T06:36:29;19.38;;;9.82;;
14078;SDS011;7115;50.150;8.568;2022-12-18T06:38:56;18.90;;;8.95;;
14078;SDS011;7115;50.150;8.568;2022-12-18T06:41:23;20.77;;;10.00;;
14078;SDS011;7115;50.150;8.568;2022-12-18T06:43:50;17.83;;;9.60;;
14078;SDS011;7115;50.150;8.568;2022-12-18T06:46:26;20.83;;;9.85;;
14078;SDS011;7115;50.150;8.568;2022-12-18T06:48:53;16.17;;;7.90;;
14078;SDS011;7115;50.150;8.568;2022-12-18T06:51:20;18.25;;;8.10;;
14078;SDS011;7115;50.150;8.568;2022-12-18T06:53:48;22.70;;;9.77;;
14078;SDS011;7115;50.150;8.568;2022-12-18T06:56:15;18.85;;;8.52;;
14078;SDS011;7115;50.150;8.568;2022-12-18T06:58:42;19.92;;;9.32;;
14078;SDS011;7115;50.150;8.568;2022-12-18T07:01:10;19.95;;;9.00;;
14078;SDS011;7115;50.150;8.568;2022-12-18T07:03:39;20.45;;;9.82;;
14078;SDS011;7115;50.150;8.568;2022-12-18T07:06:12;22.30;;;9.63;;
14078;SDS011;7115;50.150;8.568;2022-12-18T07:08:40;17.95;;;8.63;;
14078;SDS011;7115;50.150;8.568;2022-12-18T07:11:07;21.25;;;9.57;;
14078;SDS011;7115;50.150;8.568;2022-12-18T07:13:34;20.95;;;9.23;;
14078;SDS011;7115;50.150;8.568;2022-12-18T07:16:05;21.45;;;9.82;;
14078;SDS011;7115;50.150;8.568;2022-12-18T07:18:43;20.98;;;9.77;;
14078;SDS011;7115;50.150;8.568;2022-12-18T07:21:13;18.83;;;10.75;;
14078;SDS011;7115;50.150;8.568;2022-12-18T07:23:41;18.48;;;8.93;;
14078;SDS011;7115;50.150;8.568;2022-12-18T07:26:10;26.27;;;10.27;;
14078;SDS011;7115;50.150;8.568;2022-12-18T07:28:39;23.80;;;10.48;;
14078;SDS011;7115;50.150;8.568;2022-12-18T07:31:07;24.17;;;8.77;;
14078;SDS011;7115;50.150;8.568;2022-12-18T07:33:37;18.13;;;9.25;;
14078;SDS011;7115;50.150;8.568;2022-12-18T07:36:06;22.83;;;9.90;;
14078;SDS011;7115;50.150;8.568;2022-12-18T07:38:35;22.33;;;9.27;;
14078;SDS011;7115;50.150;8.568;2022-12-18T07:41:03;25.33;;;10.63;;
14078;SDS011;7115;50.150;8.568;2022-12-18T07:43:32;19.77;;;9.70;;
14078;SDS011;7115;50.150;8.568;2022-12-18T07:45:58;23.33;;;10.07;;
14078;SDS011;7115;50.150;8.568;2022-12-18T07:48:26;19.83;;;9.20;;
14078;SDS011;7115;50.150;8.568;2022-12-18T07:50:53;22.60;;;10.43;;
14078;SDS011;7115;50.150;8.568;2022-12-18T07:53:25;23.45;;;10.80;;
14078;SDS011;7115;50.150;8.568;2022-12-18T07:55:54;23.13;;;11.10;;
14078;SDS011;7115;50.150;8.568;2022-12-18T07:58:42;27.50;;;12.85;;
14078;SDS011;7115;50.150;8.568;2022-12-18T08:01:11;24.13;;;11.32;;
14078;SDS011;7115;50.150;8.568;2022-12-18T08:03:38;23.63;;;11.60;;
14078;SDS011;7115;50.150;8.568;2022-12-18T08:06:08;22.90;;;10.63;;
14078;SDS011;7115;50.150;8.568;2022-12-18T08:08:37;20.60;;;11.05;;
14078;SDS011;7115;50.150;8.568;2022-12-18T08:11:04;19.63;;;10.67;;
14078;SDS011;7115;50.150;8.568;2022-12-18T08:13:31;18.00;;;10.23;;
14078;SDS011;7115;50.150;8.568;2022-12-18T08:15:58;25.33;;;11.13;;
14078;SDS011;7115;50.150;8.568;2022-12-18T08:18:27;20.37;;;11.60;;
14078;SDS011;7115;50.150;8.568;2022-12-18T08:20:54;26.00;;;12.03;;
14078;SDS011;7115;50.150;8.568;2022-12-18T08:23:21;21.10;;;10.93;;
14078;SDS011;7115;50.150;8.568;2022-12-18T08:25:55;22.10;;;12.03;;
14078;SDS011;7115;50.150;8.568;2022-12-18T08:28:24;22.00;;;11.53;;
14078;SDS011;7115;50.150;8.568;2022-12-18T08:30:51;27.10;;;11.93;;
14078;SDS011;7115;50.150;8.568;2022-12-18T08:33:18;21.97;;;11.33;;
14078;SDS011;7115;50.150;8.568;2022-12-18T08:35:45;20.43;;;10.87;;
14078;SDS011;7115;50.150;8.568;2022-12-18T08:38:12;19.80;;;10.90;;
14078;SDS011;7115;50.150;8.568;2022-12-18T08:40:39;19.80;;;10.83;;
14078;SDS011;7115;50.150;8.568;2022-12-18T08:43:08;23.03;;;11.53;;
14078;SDS011;7115;50.150;8.568;2022-12-18T08:45:54;18.23;;;10.20;;
14078;SDS011;7115;50.150;8.568;2022-12-18T08:48:22;19.67;;;10.33;;
14078;SDS011;7115;50.150;8.568;2022-12-18T08:50:53;20.33;;;11.60;;
14078;SDS011;7115;50.150;8.568;2022-12-18T08:53:21;23.73;;;10.90;;
14078;SDS011;7115;50.150;8.568;2022-12-18T08:55:48;23.40;;;11.23;;
14078;SDS011;7115;50.150;8.568;2022-12-18T08:58:17;26.90;;;12.80;;
14078;SDS011;7115;50.150;8.568;2022-12-18T09:00:44;23.83;;;12.13;;
14078;SDS011;7115;50.150;8.568;2022-12-18T09:03:11;21.63;;;11.10;;
14078;SDS011;7115;50.150;8.568;2022-12-18T09:05:38;23.50;;;11.07;;
14078;SDS011;7115;50.150;8.568;2022-12-18T09:08:05;23.50;;;11.57;;
14078;SDS011;7115;50.150;8.568;2022-12-18T09:10:32;25.73;;;12.23;;
14078;SDS011;7115;50.150;8.568;2022-12-18T09:13:06;29.63;;;12.03;;
14078;SDS011;7115;50.150;8.568;2022-12-18T09:15:35;24.27;;;12.27;;
14078;SDS011;7115;50.150;8.568;2022-12-18T09:18:06;24.80;;;12.70;;
14078;SDS011;7115;50.150;8.568;2022-12-18T09:20:34;21.10;;;11.83;;
14078;SDS011;7115;50.150;8.568;2022-12-18T09:23:01;24.37;;;13.13;;
14078;SDS011;7115;50.150;8.568;2022-12-18T09:25:28;22.00;;;12.50;;
14078;SDS011;7115;50.150;8.568;2022-12-18T09:27:59;20.83;;;11.43;;
14078;SDS011;7115;50.150;8.568;2022-12-18T09:30:26;25.07;;;12.27;;
14078;SDS011;7115;50.150;8.568;2022-12-18T09:32:55;23.03;;;12.13;;
14078;SDS011;7115;50.150;8.568;2022-12-18T09:35:21;24.13;;;13.73;;
14078;SDS011;7115;50.150;8.568;2022-12-18T09:37:49;24.13;;;13.30;;
14078;SDS011;7115;50.150;8.568;2022-12-18T09:40:16;26.27;;;13.87;;
14078;SDS011;7115;50.150;8.568;2022-12-18T09:42:46;24.93;;;14.57;;
14078;SDS011;7115;50.150;8.568;2022-12-18T09:45:18;21.17;;;13.73;;
14078;SDS011;7115;50.150;8.568;2022-12-18T09:47:45;25.60;;;14.53;;
14078;SDS011;7115;50.150;8.568;2022-12-18T09:50:19;26.53;;;14.07;;
14078;SDS011;7115;50.150;8.568;2022-12-18T09:52:51;25.17;;;15.00;;
14078;SDS011;7115;50.150;8.568;2022-12-18T09:55:23;26.50;;;14.93;;
14078;SDS011;7115;50.150;8.568;2022-12-18T09:58:02;25.33;;;14.73;;
14078;SDS011;7115;50.150;8.568;2022-12-18T10:00:34;24.97;;;13.77;;
14078;SDS011;7115;50.150;8.568;2022-12-18T10:03:10;24.70;;;14.80;;
14078;SDS011;7115;50.150;8.568;2022-12-18T10:05:41;28.13;;;16.07;;
14078;SDS011;7115;50.150;8.568;2022-12-18T10:08:16;26.13;;;14.27;;
14078;SDS011;7115;50.150;8.568;2022-12-18T10:10:48;27.23;;;15.73;;
14078;SDS011;7115;50.150;8.568;2022-12-18T10:13:22;30.23;;;16.77;;
14078;SDS011;7115;50.150;8.568;2022-12-18T10:16:00;25.27;;;15.53;;
14078;SDS011;7115;50.150;8.568;2022-12-18T10:18:39;33.20;;;18.27;;
14078;SDS011;7115;50.150;8.568;2022-12-18T10:21:23;28.70;;;15.80;;
14078;SDS011;7115;50.150;8.568;2022-12-18T10:23:57;31.13;;;16.37;;
14078;SDS011;7115;50.150;8.568;2022-12-18T10:26:33;28.03;;;16.27;;
14078;SDS011;7115;50.150;8.568;2022-12-18T10:29:00;30.80;;;17.30;;
14078;SDS011;7115;50.150;8.568;2022-12-18T10:31:31;29.87;;;17.47;;
14078;SDS011;7115;50.150;8.568;2022-12-18T10:33:58;31.50;;;17.27;;
14078;SDS011;7115;50.150;8.568;2022-12-18T10:36:26;30.37;;;17.47;;
14078;SDS011;7115;50.150;8.568;2022-12-18T10:38:53;38.47;;;19.40;;
14078;SDS011;7115;50.150;8.568;2022-12-18T10:41:25;31.40;;;18.30;;
14078;SDS011;7115;50.150;8.568;2022-12-18T10:44:11;37.93;;;19.97;;
14078;SDS011;7115;50.150;8.568;2022-12-18T10:46:43;40.13;;;19.03;;
14078;SDS011;7115;50.150;8.568;2022-12-18T10:49:22;36.90;;;18.83;;
14078;SDS011;7115;50.150;8.568;2022-12-18T10:51:53;34.63;;;18.77;;
14078;SDS011;7115;50.150;8.568;2022-12-18T10:54:37;33.17;;;18.73;;
14078;SDS011;7115;50.150;8.568;2022-12-18T10:57:14;37.43;;;19.90;;
14078;SDS011;7115;50.150;8.568;2022-12-18T10:59:49;37.80;;;18.43;;
14078;SDS011;7115;50.150;8.568;2022-12-18T11:02:25;42.00;;;20.10;;
14078;SDS011;7115;50.150;8.568;2022-12-18T11:04:59;36.47;;;18.30;;
14078;SDS011;7115;50.150;8.568;2022-12-18T11:07:32;42.83;;;20.87;;
14078;SDS011;7115;50.150;8.568;2022-12-18T11:10:15;45.17;;;20.17;;
14078;SDS011;7115;50.150;8.568;2022-12-18T11:12:44;45.20;;;20.37;;
14078;SDS011;7115;50.150;8.568;2022-12-18T11:15:14;49.30;;;22.70;;
14078;SDS011;7115;50.150;8.568;2022-12-18T11:17:42;42.20;;;20.77;;
14078;SDS011;7115;50.150;8.568;2022-12-18T11:20:19;45.03;;;20.57;;
14078;SDS011;7115;50.150;8.568;2022-12-18T11:22:59;39.17;;;20.00;;
14078;SDS011;7115;50.150;8.568;2022-12-18T11:25:28;43.57;;;19.80;;
14078;SDS011;7115;50.150;8.568;2022-12-18T11:27:58;41.90;;;21.23;;
14078;SDS011;7115;50.150;8.568;2022-12-18T11:30:27;42.50;;;20.23;;
14078;SDS011;7115;50.150;8.568;2022-12-18T11:32:58;37.27;;;18.47;;
14078;SDS011;7115;50.150;8.568;2022-12-18T11:35:37;44.50;;;20.47;;
14078;SDS011;7115;50.150;8.568;2022-12-18T11:38:12;44.63;;;19.77;;
14078;SDS011;7115;50.150;8.568;2022-12-18T11:40:47;45.83;;;18.90;;
14078;SDS011;7115;50.150;8.568;2022-12-18T11:43:20;41.13;;;19.27;;
14078;SDS011;7115;50.150;8.568;2022-12-18T11:45:52;42.70;;;19.37;;
14078;SDS011;7115;50.150;8.568;2022-12-18T11:48:25;44.87;;;20.60;;
14078;SDS011;7115;50.150;8.568;2022-12-18T11:50:55;49.87;;;23.47;;
14078;SDS011;7115;50.150;8.568;2022-12-18T11:53:25;40.13;;;19.03;;
14078;SDS011;7115;50.150;8.568;2022-12-18T11:56:03;47.10;;;20.83;;
14078;SDS011;7115;50.150;8.568;2022-12-18T11:58:47;46.80;;;18.90;;
14078;SDS011;7115;50.150;8.568;2022-12-18T12:01:22;41.80;;;20.30;;
14078;SDS011;7115;50.150;8.568;2022-12-18T12:07:20;39.37;;;19.67;;
14078;SDS011;7115;50.150;8.568;2022-12-18T12:10:00;49.33;;;20.40;;
14078;SDS011;7115;50.150;8.568;2022-12-18T12:12:36;46.43;;;20.57;;
14078;SDS011;7115;50.150;8.568;2022-12-18T12:15:18;47.90;;;20.97;;
14078;SDS011;7115;50.150;8.568;2022-12-18T12:17:54;41.33;;;18.57;;
14078;SDS011;7115;50.150;8.568;2022-12-18T12:20:27;42.17;;;19.93;;
14078;SDS011;7115;50.150;8.568;2022-12-18T12:23:06;45.10;;;20.90;;
14078;SDS011;7115;50.150;8.568;2022-12-18T12:25:44;53.40;;;22.13;;
14078;SDS011;7115;50.150;8.568;2022-12-18T12:28:31;47.50;;;21.47;;
14078;SDS011;7115;50.150;8.568;2022-12-18T12:31:18;61.00;;;24.97;;
14078;SDS011;7115;50.150;8.568;2022-12-18T12:33:59;60.87;;;24.77;;
14078;SDS011;7115;50.150;8.568;2022-12-18T12:36:36;59.87;;;22.73;;
14078;SDS011;7115;50.150;8.568;2022-12-18T12:39:10;68.87;;;23.57;;
14078;SDS011;7115;50.150;8.568;2022-12-18T12:41:43;107.87;;;37.67;;
14078;SDS011;7115;50.150;8.568;2022-12-18T12:44:32;45.03;;;19.87;;
14078;SDS011;7115;50.150;8.568;2022-12-18T12:47:04;50.10;;;20.47;;
14078;SDS011;7115;50.150;8.568;2022-12-18T12:49:38;46.03;;;20.43;;
14078;SDS011;7115;50.150;8.568;2022-12-18T12:52:07;49.13;;;21.73;;
14078;SDS011;7115;50.150;8.568;2022-12-18T12:54:40;45.00;;;19.50;;
14078;SDS011;7115;50.150;8.568;2022-12-18T12:57:11;46.73;;;19.50;;
14078;SDS011;7115;50.150;8.568;2022-12-18T12:59:45;45.07;;;21.33;;
14078;SDS011;7115;50.150;8.568;2022-12-18T13:02:18;41.43;;;19.97;;
14078;SDS011;7115;50.150;8.568;2022-12-18T13:04:50;48.10;;;20.67;;
14078;SDS011;7115;50.150;8.568;2022-12-18T13:07:24;45.23;;;21.07;;
14078;SDS011;7115;50.150;8.568;2022-12-18T13:13:00;49.20;;;20.13;;
14078;SDS011;7115;50.150;8.568;2022-12-18T13:15:33;52.17;;;20.83;;
14078;SDS011;7115;50.150;8.568;2022-12-18T13:18:06;47.77;;;20.33;;
14078;SDS011;7115;50.150;8.568;2022-12-18T13:20:40;46.90;;;19.30;;
14078;SDS011;7115;50.150;8.568;2022-12-18T13:23:27;50.43;;;21.10;;
14078;SDS011;7115;50.150;8.568;2022-12-18T13:25:57;51.37;;;21.53;;
14078;SDS011;7115;50.150;8.568;2022-12-18T13:34:36;46.73;;;20.53;;
14078;SDS011;7115;50.150;8.568;2022-12-18T13:43:24;48.50;;;19.73;;
14078;SDS011;7115;50.150;8.568;2022-12-18T13:46:01;52.93;;;21.20;;
14078;SDS011;7115;50.150;8.568;2022-12-18T13:48:48;48.13;;;19.57;;
14078;SDS011;7115;50.150;8.568;2022-12-18T13:51:23;46.47;;;20.43;;
14078;SDS011;7115;50.150;8.568;2022-12-18T13:53:52;44.70;;;20.50;;
14078;SDS011;7115;50.150;8.568;2022-12-18T13:56:22;42.97;;;18.47;;
14078;SDS011;7115;50.150;8.568;2022-12-18T13:59:11;44.03;;;18.73;;
14078;SDS011;7115;50.150;8.568;2022-12-18T14:01:42;46.67;;;19.70;;
14078;SDS011;7115;50.150;8.568;2022-12-18T14:04:11;49.87;;;20.57;;
14078;SDS011;7115;50.150;8.568;2022-12-18T14:06:46;48.80;;;20.13;;
14078;SDS011;7115;50.150;8.568;2022-12-18T14:09:15;44.53;;;20.60;;
14078;SDS011;7115;50.150;8.568;2022-12-18T14:11:47;49.33;;;19.90;;
14078;SDS011;7115;50.150;8.568;2022-12-18T14:14:17;50.30;;;19.27;;
14078;SDS011;7115;50.150;8.568;2022-12-18T14:16:45;50.00;;;20.43;;
14078;SDS011;7115;50.150;8.568;2022-12-18T14:19:14;47.40;;;20.17;;
14078;SDS011;7115;50.150;8.568;2022-12-18T14:21:48;44.13;;;20.03;;
14078;SDS011;7115;50.150;8.568;2022-12-18T14:24:17;44.43;;;19.07;;
14078;SDS011;7115;50.150;8.568;2022-12-18T14:26:46;46.80;;;19.13;;
14078;SDS011;7115;50.150;8.568;2022-12-18T14:29:20;50.53;;;21.47;;
14078;SDS011;7115;50.150;8.568;2022-12-18T14:32:05;48.93;;;19.67;;
14078;SDS011;7115;50.150;8.568;2022-12-18T14:34:43;44.10;;;18.47;;
14078;SDS011;7115;50.150;8.568;2022-12-18T14:37:12;47.83;;;19.63;;
14078;SDS011;7115;50.150;8.568;2022-12-18T14:39:40;40.93;;;18.43;;
14078;SDS011;7115;50.150;8.568;2022-12-18T14:42:19;39.23;;;17.77;;
14078;SDS011;7115;50.150;8.568;2022-12-18T14:44:45;47.67;;;18.27;;
14078;SDS011;7115;50.150;8.568;2022-12-18T14:47:32;40.93;;;18.03;;
14078;SDS011;7115;50.150;8.568;2022-12-18T14:49:59;42.17;;;19.53;;
14078;SDS011;7115;50.150;8.568;2022-12-18T14:52:28;39.03;;;17.87;;
14078;SDS011;7115;50.150;8.568;2022-12-18T14:54:57;41.50;;;18.77;;
14078;SDS011;7115;50.150;8.568;2022-12-18T14:57:24;45.40;;;20.03;;
14078;SDS011;7115;50.150;8.568;2022-12-18T15:00:03;43.73;;;18.23;;
14078;SDS011;7115;50.150;8.568;2022-12-18T15:02:31;48.30;;;18.63;;
14078;SDS011;7115;50.150;8.568;2022-12-18T15:05:02;41.33;;;17.07;;
14078;SDS011;7115;50.150;8.568;2022-12-18T15:07:43;40.13;;;18.47;;
14078;SDS011;7115;50.150;8.568;2022-12-18T15:10:12;47.00;;;19.63;;
14078;SDS011;7115;50.150;8.568;2022-12-18T15:12:41;43.27;;;18.83;;
14078;SDS011;7115;50.150;8.568;2022-12-18T15:18:11;46.23;;;19.53;;
14078;SDS011;7115;50.150;8.568;2022-12-18T15:20:41;40.50;;;18.10;;
14078;SDS011;7115;50.150;8.568;2022-12-18T15:23:14;41.40;;;18.33;;
14078;SDS011;7115;50.150;8.568;2022-12-18T15:25:42;43.70;;;19.02;;
14078;SDS011;7115;50.150;8.568;2022-12-18T15:28:15;46.30;;;19.50;;